sensor_id;sensor_type;location;lat;lon;timestamp;P1;durP1;ratioP1;P2;durP2;ratioP2
19113;SDS011;9689;51.052;13.772;2023-04-03T00:04:49;5.97;;;1.40;;
19113;SDS011;9689;51.052;13.772;2023-04-03T00:09:50;4.70;;;1.88;;
19113;SDS011;9689;51.052;13.772;2023-04-03T00:14:51;8.00;;;1.70;;
19113;SDS011;9689;51.052;13.772;2023-04-03T00:19:53;10.68;;;1.73;;
19113;SDS011;9689;51.052;13.772;2023-04-03T00:24:53;4.82;;;1.33;;
19113;SDS011;9689;51.052;13.772;2023-04-03T00:29:54;5.05;;;1.52;;
19113;SDS011;9689;51.052;13.772;2023-04-03T00:34:56;4.47;;;1.48;;
19113;SDS011;9689;51.052;13.772;2023-04-03T00:39:57;5.70;;;1.30;;
19113;SDS011;9689;51.052;13.772;2023-04-03T00:50:33;3.88;;;1.30;;
19113;SDS011;9689;51.052;13.772;2023-04-03T00:55:36;5.10;;;1.30;;
19113;SDS011;9689;51.052;13.772;2023-04-03T01:00:38;5.68;;;1.83;;
19113;SDS011;9689;51.052;13.772;2023-04-03T01:05:44;4.75;;;1.40;;
19113;SDS011;9689;51.052;13.772;2023-04-03T01:10:45;6.95;;;1.70;;
19113;SDS011;9689;51.052;13.772;2023-04-03T01:15:46;4.63;;;1.95;;
19113;SDS011;9689;51.052;13.772;2023-04-03T01:21:01;5.80;;;1.35;;
19113;SDS011;9689;51.052;13.772;2023-04-03T01:26:24;7.13;;;1.73;;
19113;SDS011;9689;51.052;13.772;2023-04-03T01:31:27;5.97;;;1.60;;
19113;SDS011;9689;51.052;13.772;2023-04-03T01:36:33;5.78;;;1.80;;
19113;SDS011;9689;51.052;13.772;2023-04-03T01:41:34;3.33;;;1.33;;
19113;SDS011;9689;51.052;13.772;2023-04-03T01:46:43;3.28;;;1.85;;
19113;SDS011;9689;51.052;13.772;2023-04-03T01:51:45;6.10;;;1.67;;
19113;SDS011;9689;51.052;13.772;2023-04-03T01:56:46;7.15;;;2.05;;
19113;SDS011;9689;51.052;13.772;2023-04-03T02:01:47;3.95;;;1.38;;
19113;SDS011;9689;51.052;13.772;2023-04-03T02:06:50;5.15;;;1.58;;
19113;SDS011;9689;51.052;13.772;2023-04-03T02:11:50;5.28;;;1.23;;
19113;SDS011;9689;51.052;13.772;2023-04-03T02:16:51;3.85;;;1.50;;
19113;SDS011;9689;51.052;13.772;2023-04-03T02:21:55;10.13;;;1.33;;
19113;SDS011;9689;51.052;13.772;2023-04-03T02:26:56;5.00;;;1.85;;
19113;SDS011;9689;51.052;13.772;2023-04-03T02:32:00;5.25;;;1.50;;
19113;SDS011;9689;51.052;13.772;2023-04-03T02:37:04;4.75;;;1.42;;
19113;SDS011;9689;51.052;13.772;2023-04-03T02:42:05;4.63;;;1.52;;
19113;SDS011;9689;51.052;13.772;2023-04-03T02:47:06;6.63;;;1.75;;
19113;SDS011;9689;51.052;13.772;2023-04-03T02:52:08;9.13;;;2.58;;
19113;SDS011;9689;51.052;13.772;2023-04-03T02:57:10;6.80;;;1.73;;
19113;SDS011;9689;51.052;13.772;2023-04-03T03:02:11;5.57;;;1.25;;
19113;SDS011;9689;51.052;13.772;2023-04-03T03:07:13;8.70;;;1.50;;
19113;SDS011;9689;51.052;13.772;2023-04-03T03:12:14;8.05;;;1.20;;
19113;SDS011;9689;51.052;13.772;2023-04-03T03:17:15;5.80;;;1.15;;
19113;SDS011;9689;51.052;13.772;2023-04-03T03:22:17;4.75;;;1.27;;
19113;SDS011;9689;51.052;13.772;2023-04-03T03:27:18;4.88;;;1.73;;
19113;SDS011;9689;51.052;13.772;2023-04-03T03:32:19;2.40;;;1.58;;
19113;SDS011;9689;51.052;13.772;2023-04-03T03:37:22;8.35;;;1.60;;
19113;SDS011;9689;51.052;13.772;2023-04-03T03:42:22;3.67;;;1.13;;
19113;SDS011;9689;51.052;13.772;2023-04-03T03:47:23;6.35;;;1.60;;
19113;SDS011;9689;51.052;13.772;2023-04-03T03:52:26;2.53;;;1.20;;
19113;SDS011;9689;51.052;13.772;2023-04-03T03:57:28;3.75;;;1.50;;
19113;SDS011;9689;51.052;13.772;2023-04-03T04:02:30;3.05;;;1.27;;
19113;SDS011;9689;51.052;13.772;2023-04-03T04:07:32;5.13;;;1.33;;
19113;SDS011;9689;51.052;13.772;2023-04-03T04:12:34;6.18;;;1.00;;
19113;SDS011;9689;51.052;13.772;2023-04-03T04:17:36;8.00;;;1.48;;
19113;SDS011;9689;51.052;13.772;2023-04-03T04:22:42;10.52;;;1.67;;
19113;SDS011;9689;51.052;13.772;2023-04-03T04:27:44;5.65;;;1.38;;
19113;SDS011;9689;51.052;13.772;2023-04-03T04:32:46;4.85;;;1.30;;
19113;SDS011;9689;51.052;13.772;2023-04-03T04:37:49;6.33;;;1.50;;
19113;SDS011;9689;51.052;13.772;2023-04-03T04:42:50;5.90;;;1.90;;
19113;SDS011;9689;51.052;13.772;2023-04-03T04:47:54;4.20;;;1.33;;
19113;SDS011;9689;51.052;13.772;2023-04-03T04:52:58;5.13;;;1.38;;
19113;SDS011;9689;51.052;13.772;2023-04-03T04:57:59;7.88;;;1.60;;
19113;SDS011;9689;51.052;13.772;2023-04-03T05:03:00;6.07;;;1.63;;
19113;SDS011;9689;51.052;13.772;2023-04-03T05:08:02;7.85;;;2.13;;
19113;SDS011;9689;51.052;13.772;2023-04-03T05:13:03;5.63;;;1.63;;
19113;SDS011;9689;51.052;13.772;2023-04-03T05:18:04;6.57;;;2.00;;
19113;SDS011;9689;51.052;13.772;2023-04-03T05:23:06;4.72;;;1.48;;
19113;SDS011;9689;51.052;13.772;2023-04-03T05:28:07;12.98;;;2.05;;
19113;SDS011;9689;51.052;13.772;2023-04-03T05:33:09;6.53;;;2.08;;
19113;SDS011;9689;51.052;13.772;2023-04-03T05:38:20;7.97;;;2.28;;
19113;SDS011;9689;51.052;13.772;2023-04-03T05:43:22;6.35;;;1.65;;
19113;SDS011;9689;51.052;13.772;2023-04-03T05:48:23;5.40;;;1.98;;
19113;SDS011;9689;51.052;13.772;2023-04-03T05:53:28;9.05;;;2.22;;
19113;SDS011;9689;51.052;13.772;2023-04-03T05:58:35;5.20;;;1.60;;
19113;SDS011;9689;51.052;13.772;2023-04-03T06:03:35;11.90;;;2.30;;
19113;SDS011;9689;51.052;13.772;2023-04-03T06:08:41;11.27;;;3.15;;
19113;SDS011;9689;51.052;13.772;2023-04-03T06:13:43;4.65;;;2.20;;
19113;SDS011;9689;51.052;13.772;2023-04-03T06:18:44;6.68;;;2.00;;
19113;SDS011;9689;51.052;13.772;2023-04-03T06:23:46;6.00;;;1.83;;
19113;SDS011;9689;51.052;13.772;2023-04-03T06:28:47;8.55;;;2.10;;
19113;SDS011;9689;51.052;13.772;2023-04-03T06:33:48;6.22;;;1.80;;
19113;SDS011;9689;51.052;13.772;2023-04-03T06:38:50;9.93;;;1.77;;
19113;SDS011;9689;51.052;13.772;2023-04-03T06:43:51;10.93;;;2.42;;
19113;SDS011;9689;51.052;13.772;2023-04-03T06:48:52;8.98;;;1.85;;
19113;SDS011;9689;51.052;13.772;2023-04-03T06:53:57;7.25;;;2.17;;
19113;SDS011;9689;51.052;13.772;2023-04-03T06:58:59;9.63;;;1.92;;
19113;SDS011;9689;51.052;13.772;2023-04-03T07:04:00;9.23;;;2.78;;
19113;SDS011;9689;51.052;13.772;2023-04-03T07:09:02;7.85;;;1.98;;
19113;SDS011;9689;51.052;13.772;2023-04-03T07:14:03;7.75;;;2.17;;
19113;SDS011;9689;51.052;13.772;2023-04-03T07:19:04;8.90;;;2.42;;
19113;SDS011;9689;51.052;13.772;2023-04-03T07:24:06;6.53;;;1.95;;
19113;SDS011;9689;51.052;13.772;2023-04-03T07:29:13;7.82;;;1.73;;
19113;SDS011;9689;51.052;13.772;2023-04-03T07:34:14;5.22;;;1.50;;
19113;SDS011;9689;51.052;13.772;2023-04-03T07:39:16;11.98;;;2.45;;
19113;SDS011;9689;51.052;13.772;2023-04-03T07:44:17;6.85;;;1.77;;
19113;SDS011;9689;51.052;13.772;2023-04-03T07:49:18;4.70;;;1.42;;
19113;SDS011;9689;51.052;13.772;2023-04-03T07:54:20;7.22;;;2.03;;
19113;SDS011;9689;51.052;13.772;2023-04-03T07:59:20;8.00;;;2.10;;
19113;SDS011;9689;51.052;13.772;2023-04-03T08:04:21;9.40;;;1.63;;
19113;SDS011;9689;51.052;13.772;2023-04-03T08:09:23;11.30;;;1.90;;
19113;SDS011;9689;51.052;13.772;2023-04-03T08:14:24;6.28;;;1.90;;
19113;SDS011;9689;51.052;13.772;2023-04-03T08:19:25;9.98;;;2.25;;
19113;SDS011;9689;51.052;13.772;2023-04-03T08:24:28;12.93;;;1.67;;
19113;SDS011;9689;51.052;13.772;2023-04-03T08:29:28;4.53;;;1.60;;
19113;SDS011;9689;51.052;13.772;2023-04-03T08:34:31;10.95;;;1.90;;
19113;SDS011;9689;51.052;13.772;2023-04-03T08:39:35;10.43;;;1.80;;
19113;SDS011;9689;51.052;13.772;2023-04-03T08:44:38;10.77;;;1.80;;
19113;SDS011;9689;51.052;13.772;2023-04-03T08:49:43;5.82;;;1.65;;
19113;SDS011;9689;51.052;13.772;2023-04-03T08:54:52;7.85;;;1.58;;
19113;SDS011;9689;51.052;13.772;2023-04-03T08:59:55;5.30;;;1.27;;
19113;SDS011;9689;51.052;13.772;2023-04-03T09:04:59;7.18;;;1.80;;
19113;SDS011;9689;51.052;13.772;2023-04-03T09:10:03;11.02;;;1.50;;
19113;SDS011;9689;51.052;13.772;2023-04-03T09:15:07;5.10;;;1.30;;
19113;SDS011;9689;51.052;13.772;2023-04-03T09:20:21;5.93;;;1.38;;
19113;SDS011;9689;51.052;13.772;2023-04-03T09:25:27;4.25;;;1.17;;
19113;SDS011;9689;51.052;13.772;2023-04-03T09:30:34;8.90;;;1.60;;
19113;SDS011;9689;51.052;13.772;2023-04-03T09:35:36;3.55;;;1.80;;
19113;SDS011;9689;51.052;13.772;2023-04-03T09:41:02;9.02;;;2.17;;
19113;SDS011;9689;51.052;13.772;2023-04-03T09:46:20;4.25;;;1.73;;
19113;SDS011;9689;51.052;13.772;2023-04-03T09:51:26;12.43;;;1.70;;
19113;SDS011;9689;51.052;13.772;2023-04-03T09:56:29;7.07;;;1.55;;
19113;SDS011;9689;51.052;13.772;2023-04-03T10:01:33;3.53;;;1.00;;
19113;SDS011;9689;51.052;13.772;2023-04-03T10:06:36;6.40;;;0.90;;
19113;SDS011;9689;51.052;13.772;2023-04-03T10:11:41;5.00;;;1.13;;
19113;SDS011;9689;51.052;13.772;2023-04-03T10:16:59;1.42;;;0.90;;
19113;SDS011;9689;51.052;13.772;2023-04-03T10:22:18;8.43;;;1.10;;
19113;SDS011;9689;51.052;13.772;2023-04-03T10:27:26;3.80;;;1.20;;
19113;SDS011;9689;51.052;13.772;2023-04-03T10:32:42;5.25;;;0.90;;
19113;SDS011;9689;51.052;13.772;2023-04-03T10:37:53;4.90;;;1.45;;
19113;SDS011;9689;51.052;13.772;2023-04-03T10:43:06;5.88;;;1.10;;
19113;SDS011;9689;51.052;13.772;2023-04-03T10:48:14;4.97;;;1.27;;
19113;SDS011;9689;51.052;13.772;2023-04-03T10:53:26;6.05;;;1.08;;
19113;SDS011;9689;51.052;13.772;2023-04-03T10:58:34;5.20;;;1.00;;
19113;SDS011;9689;51.052;13.772;2023-04-03T11:03:40;1.88;;;0.98;;
19113;SDS011;9689;51.052;13.772;2023-04-03T11:08:45;3.20;;;0.75;;
19113;SDS011;9689;51.052;13.772;2023-04-03T11:13:52;6.68;;;0.82;;
19113;SDS011;9689;51.052;13.772;2023-04-03T11:18:59;2.00;;;0.98;;
19113;SDS011;9689;51.052;13.772;2023-04-03T11:24:02;10.63;;;1.35;;
19113;SDS011;9689;51.052;13.772;2023-04-03T11:29:13;4.05;;;0.95;;
19113;SDS011;9689;51.052;13.772;2023-04-03T11:34:33;3.88;;;0.82;;
19113;SDS011;9689;51.052;13.772;2023-04-03T11:39:47;1.65;;;0.80;;
19113;SDS011;9689;51.052;13.772;2023-04-03T11:50:42;4.25;;;1.02;;
19113;SDS011;9689;51.052;13.772;2023-04-03T11:55:46;2.17;;;0.88;;
19113;SDS011;9689;51.052;13.772;2023-04-03T12:01:01;4.40;;;1.10;;
19113;SDS011;9689;51.052;13.772;2023-04-03T12:11:58;4.45;;;0.93;;
19113;SDS011;9689;51.052;13.772;2023-04-03T12:17:00;1.48;;;0.80;;
19113;SDS011;9689;51.052;13.772;2023-04-03T12:22:09;6.10;;;0.95;;
19113;SDS011;9689;51.052;13.772;2023-04-03T12:27:20;3.88;;;1.40;;
19113;SDS011;9689;51.052;13.772;2023-04-03T12:44:01;4.32;;;1.10;;
19113;SDS011;9689;51.052;13.772;2023-04-03T12:49:18;7.40;;;1.30;;
19113;SDS011;9689;51.052;13.772;2023-04-03T12:54:35;3.83;;;1.10;;
19113;SDS011;9689;51.052;13.772;2023-04-03T12:59:40;4.15;;;1.52;;
19113;SDS011;9689;51.052;13.772;2023-04-03T13:04:43;2.80;;;1.10;;
19113;SDS011;9689;51.052;13.772;2023-04-03T13:09:47;4.15;;;1.00;;
19113;SDS011;9689;51.052;13.772;2023-04-03T13:14:57;3.97;;;1.60;;
19113;SDS011;9689;51.052;13.772;2023-04-03T13:20:09;3.95;;;1.30;;
19113;SDS011;9689;51.052;13.772;2023-04-03T13:25:13;2.90;;;0.80;;
19113;SDS011;9689;51.052;13.772;2023-04-03T13:30:23;3.28;;;1.00;;
19113;SDS011;9689;51.052;13.772;2023-04-03T13:35:28;5.18;;;1.00;;
19113;SDS011;9689;51.052;13.772;2023-04-03T13:40:32;3.08;;;1.27;;
19113;SDS011;9689;51.052;13.772;2023-04-03T13:45:57;5.38;;;1.23;;
19113;SDS011;9689;51.052;13.772;2023-04-03T13:51:01;5.45;;;1.25;;
19113;SDS011;9689;51.052;13.772;2023-04-03T13:56:07;2.83;;;1.15;;
19113;SDS011;9689;51.052;13.772;2023-04-03T14:01:19;1.45;;;0.82;;
19113;SDS011;9689;51.052;13.772;2023-04-03T14:06:21;4.93;;;1.10;;
19113;SDS011;9689;51.052;13.772;2023-04-03T14:11:24;2.80;;;1.10;;
19113;SDS011;9689;51.052;13.772;2023-04-03T14:16:30;3.60;;;1.10;;
19113;SDS011;9689;51.052;13.772;2023-04-03T14:21:36;5.65;;;1.10;;
19113;SDS011;9689;51.052;13.772;2023-04-03T14:26:37;4.57;;;1.35;;
19113;SDS011;9689;51.052;13.772;2023-04-03T14:31:39;3.03;;;1.35;;
19113;SDS011;9689;51.052;13.772;2023-04-03T14:36:41;2.83;;;1.10;;
19113;SDS011;9689;51.052;13.772;2023-04-03T14:41:44;5.25;;;1.30;;
19113;SDS011;9689;51.052;13.772;2023-04-03T14:46:46;4.85;;;1.20;;
19113;SDS011;9689;51.052;13.772;2023-04-03T14:51:55;2.85;;;1.10;;
19113;SDS011;9689;51.052;13.772;2023-04-03T14:56:58;6.75;;;1.33;;
19113;SDS011;9689;51.052;13.772;2023-04-03T15:02:01;3.55;;;0.82;;
19113;SDS011;9689;51.052;13.772;2023-04-03T15:07:07;6.07;;;1.50;;
19113;SDS011;9689;51.052;13.772;2023-04-03T15:12:08;3.75;;;1.20;;
19113;SDS011;9689;51.052;13.772;2023-04-03T15:17:12;2.58;;;1.20;;
19113;SDS011;9689;51.052;13.772;2023-04-03T15:22:17;2.80;;;0.80;;
19113;SDS011;9689;51.052;13.772;2023-04-03T15:27:19;3.72;;;1.35;;
19113;SDS011;9689;51.052;13.772;2023-04-03T15:32:21;6.45;;;1.17;;
19113;SDS011;9689;51.052;13.772;2023-04-03T15:37:22;9.10;;;1.48;;
19113;SDS011;9689;51.052;13.772;2023-04-03T15:42:23;4.90;;;1.35;;
19113;SDS011;9689;51.052;13.772;2023-04-03T15:47:25;4.55;;;1.15;;
19113;SDS011;9689;51.052;13.772;2023-04-03T15:52:27;2.58;;;0.93;;
19113;SDS011;9689;51.052;13.772;2023-04-03T15:57:27;5.03;;;1.00;;
19113;SDS011;9689;51.052;13.772;2023-04-03T16:02:34;1.52;;;1.00;;
19113;SDS011;9689;51.052;13.772;2023-04-03T16:07:36;6.13;;;1.25;;
19113;SDS011;9689;51.052;13.772;2023-04-03T16:12:37;4.68;;;0.90;;
19113;SDS011;9689;51.052;13.772;2023-04-03T16:17:39;4.95;;;1.00;;
19113;SDS011;9689;51.052;13.772;2023-04-03T16:22:41;5.07;;;1.13;;
19113;SDS011;9689;51.052;13.772;2023-04-03T16:27:43;3.35;;;0.95;;
19113;SDS011;9689;51.052;13.772;2023-04-03T16:32:45;6.65;;;1.33;;
19113;SDS011;9689;51.052;13.772;2023-04-03T16:37:46;5.90;;;1.10;;
19113;SDS011;9689;51.052;13.772;2023-04-03T16:42:46;5.38;;;1.75;;
19113;SDS011;9689;51.052;13.772;2023-04-03T16:47:49;4.85;;;1.20;;
19113;SDS011;9689;51.052;13.772;2023-04-03T16:52:49;5.15;;;1.17;;
19113;SDS011;9689;51.052;13.772;2023-04-03T16:57:50;4.80;;;0.82;;
19113;SDS011;9689;51.052;13.772;2023-04-03T17:02:52;6.55;;;2.20;;
19113;SDS011;9689;51.052;13.772;2023-04-03T17:07:53;4.35;;;0.93;;
19113;SDS011;9689;51.052;13.772;2023-04-03T17:12:54;2.95;;;1.10;;
19113;SDS011;9689;51.052;13.772;2023-04-03T17:17:56;4.70;;;1.23;;
19113;SDS011;9689;51.052;13.772;2023-04-03T17:22:57;4.25;;;1.17;;
19113;SDS011;9689;51.052;13.772;2023-04-03T17:27:57;7.45;;;1.80;;
19113;SDS011;9689;51.052;13.772;2023-04-03T17:33:00;5.25;;;1.45;;
19113;SDS011;9689;51.052;13.772;2023-04-03T17:38:00;3.28;;;1.10;;
19113;SDS011;9689;51.052;13.772;2023-04-03T17:43:02;10.43;;;2.13;;
19113;SDS011;9689;51.052;13.772;2023-04-03T17:48:05;10.50;;;1.60;;
19113;SDS011;9689;51.052;13.772;2023-04-03T17:53:06;4.85;;;1.63;;
19113;SDS011;9689;51.052;13.772;2023-04-03T17:58:06;5.05;;;1.60;;
19113;SDS011;9689;51.052;13.772;2023-04-03T18:03:08;3.42;;;1.30;;
19113;SDS011;9689;51.052;13.772;2023-04-03T18:08:09;4.40;;;1.67;;
19113;SDS011;9689;51.052;13.772;2023-04-03T18:13:10;5.78;;;1.65;;
19113;SDS011;9689;51.052;13.772;2023-04-03T18:18:14;2.75;;;1.33;;
19113;SDS011;9689;51.052;13.772;2023-04-03T18:23:14;6.75;;;1.52;;
19113;SDS011;9689;51.052;13.772;2023-04-03T18:28:15;4.43;;;1.88;;
19113;SDS011;9689;51.052;13.772;2023-04-03T18:33:17;5.13;;;1.83;;
19113;SDS011;9689;51.052;13.772;2023-04-03T18:38:18;10.93;;;2.90;;
19113;SDS011;9689;51.052;13.772;2023-04-03T18:43:19;8.20;;;2.05;;
19113;SDS011;9689;51.052;13.772;2023-04-03T18:48:21;5.72;;;1.88;;
19113;SDS011;9689;51.052;13.772;2023-04-03T18:53:23;6.45;;;2.50;;
19113;SDS011;9689;51.052;13.772;2023-04-03T18:58:23;5.50;;;2.30;;
19113;SDS011;9689;51.052;13.772;2023-04-03T19:03:25;5.50;;;2.42;;
19113;SDS011;9689;51.052;13.772;2023-04-03T19:08:27;4.55;;;2.20;;
19113;SDS011;9689;51.052;13.772;2023-04-03T19:13:28;10.02;;;2.88;;
19113;SDS011;9689;51.052;13.772;2023-04-03T19:18:34;13.93;;;3.05;;
19113;SDS011;9689;51.052;13.772;2023-04-03T19:23:34;8.38;;;3.65;;
19113;SDS011;9689;51.052;13.772;2023-04-03T19:28:35;7.85;;;2.35;;
19113;SDS011;9689;51.052;13.772;2023-04-03T19:33:39;5.53;;;2.75;;
19113;SDS011;9689;51.052;13.772;2023-04-03T19:38:40;6.25;;;2.72;;
19113;SDS011;9689;51.052;13.772;2023-04-03T19:43:41;8.80;;;3.50;;
19113;SDS011;9689;51.052;13.772;2023-04-03T19:48:44;10.23;;;2.83;;
19113;SDS011;9689;51.052;13.772;2023-04-03T19:53:45;10.50;;;2.70;;
19113;SDS011;9689;51.052;13.772;2023-04-03T19:58:46;12.55;;;3.15;;
19113;SDS011;9689;51.052;13.772;2023-04-03T20:03:53;9.93;;;3.17;;
19113;SDS011;9689;51.052;13.772;2023-04-03T20:08:54;6.35;;;2.60;;
19113;SDS011;9689;51.052;13.772;2023-04-03T20:13:55;6.22;;;2.75;;
19113;SDS011;9689;51.052;13.772;2023-04-03T20:18:57;10.52;;;2.70;;
19113;SDS011;9689;51.052;13.772;2023-04-03T20:24:00;6.75;;;2.38;;
19113;SDS011;9689;51.052;13.772;2023-04-03T20:29:02;5.70;;;2.38;;
19113;SDS011;9689;51.052;13.772;2023-04-03T20:34:04;8.85;;;2.25;;
19113;SDS011;9689;51.052;13.772;2023-04-03T20:39:05;6.72;;;2.83;;
19113;SDS011;9689;51.052;13.772;2023-04-03T20:44:06;10.68;;;2.42;;
19113;SDS011;9689;51.052;13.772;2023-04-03T20:49:08;4.40;;;2.22;;
19113;SDS011;9689;51.052;13.772;2023-04-03T20:54:08;9.27;;;2.38;;
19113;SDS011;9689;51.052;13.772;2023-04-03T20:59:09;6.07;;;2.25;;
19113;SDS011;9689;51.052;13.772;2023-04-03T21:04:16;5.70;;;2.40;;
19113;SDS011;9689;51.052;13.772;2023-04-03T21:20:39;5.20;;;2.22;;
19113;SDS011;9689;51.052;13.772;2023-04-03T21:25:42;8.65;;;2.67;;
19113;SDS011;9689;51.052;13.772;2023-04-03T21:30:43;9.68;;;2.40;;
19113;SDS011;9689;51.052;13.772;2023-04-03T21:35:45;12.75;;;3.00;;
19113;SDS011;9689;51.052;13.772;2023-04-03T21:40:46;4.78;;;2.05;;
19113;SDS011;9689;51.052;13.772;2023-04-03T21:45:51;8.95;;;2.10;;
19113;SDS011;9689;51.052;13.772;2023-04-03T21:51:00;6.72;;;2.13;;
19113;SDS011;9689;51.052;13.772;2023-04-03T21:56:01;10.52;;;2.22;;
19113;SDS011;9689;51.052;13.772;2023-04-03T22:01:08;13.38;;;2.40;;
19113;SDS011;9689;51.052;13.772;2023-04-03T22:06:12;10.02;;;2.40;;
19113;SDS011;9689;51.052;13.772;2023-04-03T22:11:14;6.90;;;2.35;;
19113;SDS011;9689;51.052;13.772;2023-04-03T22:16:15;11.45;;;2.40;;
19113;SDS011;9689;51.052;13.772;2023-04-03T22:21:17;6.05;;;1.88;;
19113;SDS011;9689;51.052;13.772;2023-04-03T22:26:19;6.70;;;2.05;;
19113;SDS011;9689;51.052;13.772;2023-04-03T22:31:20;5.45;;;2.20;;
19113;SDS011;9689;51.052;13.772;2023-04-03T22:36:22;5.78;;;1.85;;
19113;SDS011;9689;51.052;13.772;2023-04-03T22:41:23;8.13;;;2.00;;
19113;SDS011;9689;51.052;13.772;2023-04-03T22:46:24;3.20;;;1.58;;
19113;SDS011;9689;51.052;13.772;2023-04-03T22:51:27;5.20;;;2.30;;
19113;SDS011;9689;51.052;13.772;2023-04-03T22:56:28;5.90;;;1.85;;
19113;SDS011;9689;51.052;13.772;2023-04-03T23:01:29;7.07;;;2.08;;
19113;SDS011;9689;51.052;13.772;2023-04-03T23:06:31;8.38;;;2.50;;
19113;SDS011;9689;51.052;13.772;2023-04-03T23:11:32;6.47;;;2.00;;
19113;SDS011;9689;51.052;13.772;2023-04-03T23:16:33;7.07;;;2.10;;
19113;SDS011;9689;51.052;13.772;2023-04-03T23:21:35;5.00;;;2.13;;
19113;SDS011;9689;51.052;13.772;2023-04-03T23:26:36;10.85;;;1.73;;
19113;SDS011;9689;51.052;13.772;2023-04-03T23:31:36;4.38;;;1.65;;
19113;SDS011;9689;51.052;13.772;2023-04-03T23:36:38;8.10;;;2.33;;
19113;SDS011;9689;51.052;13.772;2023-04-03T23:41:39;5.95;;;1.63;;
19113;SDS011;9689;51.052;13.772;2023-04-03T23:46:42;4.40;;;1.98;;
19113;SDS011;9689;51.052;13.772;2023-04-03T23:51:44;5.85;;;2.10;;
19113;SDS011;9689;51.052;13.772;2023-04-03T23:56:45;5.03;;;1.80;;
